Time;durP1;ratioP1;P1;durP2;ratioP2;P2;SDS_P1;SDS_P2;PMS_P1;PMS_P2;Temp;Humidity;BMP_temperature;BMP_pressure;BME280_temperature;BME280_humidity;BME280_pressure;Samples;Min_cycle;Max_cycle;Signal;HPM_P1;HPM_P2
2023/07/25 00:00:11;;;;;;;4.93;2.78;;;16.70;80.80;;;;;;5072545;28;20142;-77
2023/07/25 00:02:37;;;;;;;4.50;3.15;;;16.60;80.90;;;;;;5072398;28;20023;-79
2023/07/25 00:05:04;;;;;;;4.10;3.00;;;16.60;81.40;;;;;;5072359;28;20116;-77
2023/07/25 00:07:29;;;;;;;3.60;2.92;;;16.60;81.40;;;;;;5072390;28;20020;-79
2023/07/25 00:09:56;;;;;;;3.90;3.00;;;16.60;81.40;;;;;;5072491;28;20542;-76
2023/07/25 00:12:22;;;;;;;3.38;3.08;;;16.60;81.40;;;;;;5074833;28;20032;-75
2023/07/25 00:14:48;;;;;;;3.97;3.03;;;16.60;81.40;;;;;;5076348;28;20063;-79
2023/07/25 00:17:14;;;;;;;3.75;2.88;;;16.60;81.50;;;;;;5076162;28;20020;-78
2023/07/25 00:19:39;;;;;;;4.80;3.20;;;16.60;81.40;;;;;;5076415;28;20096;-76
2023/07/25 00:22:05;;;;;;;4.03;3.10;;;16.60;81.70;;;;;;5057749;28;20104;-77
2023/07/25 00:24:30;;;;;;;5.07;3.80;;;16.60;81.50;;;;;;5076367;28;20032;-78
2023/07/25 00:26:56;;;;;;;7.95;3.30;;;16.60;81.40;;;;;;5076175;28;20020;-78
2023/07/25 00:29:22;;;;;;;6.55;3.63;;;16.60;81.70;;;;;;5076099;28;20067;-78
2023/07/25 00:31:47;;;;;;;5.07;3.50;;;16.50;81.80;;;;;;5076168;28;20024;-78
2023/07/25 00:34:13;;;;;;;3.38;2.90;;;16.50;82.00;;;;;;5075971;28;20062;-78
2023/07/25 00:36:38;;;;;;;4.32;3.30;;;16.50;82.00;;;;;;5076217;28;20024;-78
2023/07/25 00:39:04;;;;;;;3.70;3.20;;;16.50;81.90;;;;;;5075775;28;20020;-78
2023/07/25 00:41:29;;;;;;;5.20;3.47;;;16.50;82.00;;;;;;5075985;28;20017;-78
2023/07/25 00:43:55;;;;;;;4.78;3.53;;;16.50;82.40;;;;;;5075957;28;20029;-78
2023/07/25 00:46:20;;;;;;;4.80;3.55;;;16.40;82.30;;;;;;5075924;28;20017;-77
2023/07/25 00:48:46;;;;;;;5.65;3.42;;;16.40;83.30;;;;;;5075897;28;20362;-78
2023/07/25 00:51:12;;;;;;;5.32;3.50;;;16.40;82.70;;;;;;5075904;28;20024;-79
2023/07/25 00:53:38;;;;;;;4.47;3.28;;;16.40;82.70;;;;;;5075962;28;20551;-77
2023/07/25 00:56:06;;;;;;;4.53;3.30;;;16.40;82.70;;;;;;5057978;28;20058;-79
2023/07/25 00:58:31;;;;;;;4.95;3.10;;;16.40;82.90;;;;;;5075799;28;20071;-78
2023/07/25 01:01:04;;;;;;;4.43;3.25;;;16.40;82.70;;;;;;5075862;28;20025;-78
2023/07/25 01:03:31;;;;;;;4.38;3.40;;;16.50;82.70;;;;;;5075587;28;20021;-79
2023/07/25 01:06:03;;;;;;;6.70;3.78;;;16.50;82.40;;;;;;5075764;28;20103;-79
2023/07/25 01:08:29;;;;;;;4.68;3.75;;;16.50;82.40;;;;;;5075639;28;20017;-78
2023/07/25 01:10:54;;;;;;;3.65;3.28;;;16.50;82.50;;;;;;5075658;28;20067;-79
2023/07/25 01:13:21;;;;;;;9.10;3.70;;;16.40;82.50;;;;;;5057429;28;20476;-78
2023/07/25 01:15:48;;;;;;;4.95;3.05;;;16.50;82.80;;;;;;5075321;28;20521;-78
2023/07/25 01:18:14;;;;;;;4.60;3.53;;;16.50;82.90;;;;;;5075473;28;20052;-78
2023/07/25 01:20:40;;;;;;;3.88;3.45;;;16.50;83.00;;;;;;5075330;28;20056;-78
2023/07/25 01:23:08;;;;;;;4.18;3.63;;;16.50;83.00;;;;;;5074336;28;20025;-78
2023/07/25 01:25:34;;;;;;;4.32;3.65;;;16.50;83.20;;;;;;5075224;28;20023;-78
2023/07/25 01:28:00;;;;;;;7.20;3.88;;;16.50;83.10;;;;;;5075017;28;20052;-78
2023/07/25 01:30:25;;;;;;;5.28;3.05;;;16.50;83.50;;;;;;5074979;28;20127;-77
2023/07/25 01:32:52;;;;;;;5.55;3.33;;;16.40;83.50;;;;;;5075095;28;20082;-77
2023/07/25 01:35:17;;;;;;;5.68;3.28;;;16.40;83.40;;;;;;5075054;28;20032;-78
2023/07/25 01:37:43;;;;;;;5.63;3.72;;;16.40;83.80;;;;;;5074861;28;20039;-77
2023/07/25 01:40:09;;;;;;;5.05;3.35;;;16.40;83.80;;;;;;5074936;28;20029;-77
2023/07/25 01:42:35;;;;;;;4.20;3.78;;;16.40;83.90;;;;;;5056832;28;20115;-78
2023/07/25 01:45:00;;;;;;;5.07;3.40;;;16.40;83.90;;;;;;5074842;28;20113;-79
2023/07/25 01:47:26;;;;;;;3.42;3.13;;;16.40;83.80;;;;;;5074831;28;20127;-79
2023/07/25 01:49:52;;;;;;;3.88;3.50;;;16.40;83.80;;;;;;5074873;28;20074;-77
2023/07/25 01:52:19;;;;;;;4.68;3.42;;;16.50;83.70;;;;;;5074796;28;20465;-77
2023/07/25 01:54:44;;;;;;;4.30;3.47;;;16.50;83.70;;;;;;5074361;28;20043;-79
2023/07/25 01:57:10;;;;;;;5.25;3.60;;;16.50;83.60;;;;;;5074676;28;20021;-79
2023/07/25 01:59:35;;;;;;;5.65;3.35;;;16.50;83.50;;;;;;5056502;28;20056;-79
2023/07/25 02:02:01;;;;;;;4.47;3.45;;;16.50;83.50;;;;;;5074506;28;20044;-78
2023/07/25 02:04:26;;;;;;;6.45;3.80;;;16.50;83.60;;;;;;5074392;28;20025;-77
2023/07/25 02:06:52;;;;;;;4.15;3.60;;;16.50;83.30;;;;;;5074315;28;20485;-77
2023/07/25 02:09:18;;;;;;;3.72;3.15;;;16.50;83.30;;;;;;5074316;28;20067;-77
2023/07/25 02:11:43;;;;;;;6.30;3.63;;;16.50;83.20;;;;;;5074256;28;20031;-78
2023/07/25 02:14:09;;;;;;;3.42;2.97;;;16.60;83.20;;;;;;5074111;28;20025;-79
2023/07/25 02:16:36;;;;;;;5.07;3.20;;;16.60;83.10;;;;;;5056303;28;20054;-77
2023/07/25 02:19:03;;;;;;;5.10;3.58;;;16.50;83.20;;;;;;5074217;28;20376;-79
2023/07/25 02:21:28;;;;;;;5.22;3.60;;;16.50;83.50;;;;;;5074252;28;20447;-79
2023/07/25 02:23:54;;;;;;;6.95;3.53;;;16.60;84.10;;;;;;5074093;28;20028;-79
2023/07/25 02:26:19;;;;;;;4.50;3.90;;;16.50;84.70;;;;;;5074159;28;20025;-79
2023/07/25 02:28:45;;;;;;;6.10;3.55;;;16.50;85.00;;;;;;5073981;28;20076;-79
2023/07/25 02:31:11;;;;;;;4.68;4.00;;;16.40;85.00;;;;;;5073764;28;20021;-79
2023/07/25 02:33:37;;;;;;;6.00;3.83;;;16.40;85.10;;;;;;5073781;28;20083;-79
2023/07/25 02:36:03;;;;;;;5.65;4.22;;;16.50;85.50;;;;;;5073712;28;20419;-79
2023/07/25 02:38:29;;;;;;;7.63;4.70;;;16.60;85.90;;;;;;5073633;28;20073;-79
2023/07/25 02:40:55;;;;;;;5.10;4.07;;;16.60;86.10;;;;;;5073828;28;20020;-79
2023/07/25 02:43:22;;;;;;;5.32;4.30;;;16.60;85.90;;;;;;5073659;28;20074;-78
2023/07/25 02:45:49;;;;;;;5.70;4.63;;;16.70;85.80;;;;;;5055460;28;20480;-77
2023/07/25 02:48:15;;;;;;;4.20;3.70;;;16.70;85.70;;;;;;5073552;28;20024;-78
2023/07/25 02:50:40;;;;;;;5.78;4.50;;;16.80;85.60;;;;;;5073480;28;20349;-76
2023/07/25 02:53:06;;;;;;;5.13;4.03;;;16.80;85.40;;;;;;5073416;28;20033;-76
2023/07/25 02:55:31;;;;;;;4.40;4.00;;;16.90;85.30;;;;;;5073347;28;20202;-77
2023/07/25 02:57:57;;;;;;;5.28;4.72;;;16.90;85.10;;;;;;5073315;28;20526;-76
2023/07/25 03:00:23;;;;;;;5.10;4.25;;;16.90;84.90;;;;;;5073275;28;20385;-78
2023/07/25 03:02:49;;;;;;;5.80;4.25;;;16.90;84.70;;;;;;5073265;28;20028;-77
2023/07/25 03:05:15;;;;;;;6.20;4.13;;;17.00;84.60;;;;;;5073261;28;20024;-77
2023/07/25 03:07:41;;;;;;;6.45;4.35;;;17.00;84.50;;;;;;5062770;28;20035;-77
2023/07/25 03:10:07;;;;;;;6.65;5.13;;;17.00;84.50;;;;;;5053080;28;20021;-77
2023/07/25 03:12:33;;;;;;;5.57;4.65;;;16.90;84.60;;;;;;5052784;28;20048;-77
2023/07/25 03:14:58;;;;;;;5.18;4.43;;;16.80;84.70;;;;;;5034928;28;20028;-77
2023/07/25 03:17:24;;;;;;;4.97;4.47;;;16.70;85.20;;;;;;5053065;28;20025;-78
2023/07/25 03:19:50;;;;;;;5.72;4.40;;;16.70;85.30;;;;;;5052965;28;20044;-77
2023/07/25 03:22:18;;;;;;;5.50;4.30;;;16.70;85.10;;;;;;5052908;28;20071;-78
2023/07/25 03:24:44;;;;;;;5.55;4.10;;;16.80;85.20;;;;;;5052879;28;20062;-76
2023/07/25 03:27:09;;;;;;;5.63;4.00;;;16.70;85.20;;;;;;5052693;28;20091;-77
2023/07/25 03:29:35;;;;;;;5.35;4.10;;;16.80;85.10;;;;;;5052830;28;20396;-78
2023/07/25 03:32:01;;;;;;;5.45;4.45;;;16.80;84.80;;;;;;5052865;28;20020;-77
2023/07/25 03:34:26;;;;;;;8.00;4.95;;;16.70;84.80;;;;;;5052768;28;20037;-78
2023/07/25 03:36:52;;;;;;;6.68;5.18;;;16.60;85.10;;;;;;5052886;28;20021;-78
2023/07/25 03:39:17;;;;;;;6.53;4.97;;;16.60;85.10;;;;;;5052755;28;20393;-77
2023/07/25 03:41:43;;;;;;;5.30;4.38;;;16.50;85.20;;;;;;5052715;28;20043;-78
2023/07/25 03:44:10;;;;;;;4.53;4.03;;;16.50;85.20;;;;;;5052767;28;20529;-76
2023/07/25 03:46:36;;;;;;;4.68;4.05;;;16.60;85.20;;;;;;5052326;28;20465;-77
2023/07/25 03:49:01;;;;;;;5.93;4.40;;;16.60;84.90;;;;;;5034645;28;20090;-77
2023/07/25 03:51:27;;;;;;;4.70;3.95;;;16.50;84.90;;;;;;5052542;28;20166;-76
2023/07/25 03:53:52;;;;;;;4.47;4.03;;;16.50;85.00;;;;;;5052489;28;20033;-77
2023/07/25 03:56:18;;;;;;;5.82;4.20;;;16.60;85.10;;;;;;5052656;28;20021;-77
2023/07/25 03:58:43;;;;;;;6.75;4.65;;;16.60;85.00;;;;;;5052616;28;20029;-75
2023/07/25 04:01:09;;;;;;;5.05;3.85;;;16.60;84.80;;;;;;5052632;28;20486;-76
2023/07/25 04:03:34;;;;;;;3.95;3.58;;;16.60;84.60;;;;;;5052638;28;20389;-76
2023/07/25 04:06:00;;;;;;;6.90;4.63;;;16.60;84.60;;;;;;5052605;28;20435;-76
2023/07/25 04:08:25;;;;;;;6.50;4.90;;;16.60;84.50;;;;;;5052589;28;20119;-75
2023/07/25 04:10:51;;;;;;;7.70;4.53;;;16.60;84.70;;;;;;5034527;28;20044;-76
2023/07/25 04:13:17;;;;;;;5.43;4.25;;;16.60;84.70;;;;;;5052492;28;20037;-75
2023/07/25 04:15:42;;;;;;;8.65;4.18;;;16.60;84.50;;;;;;5052569;28;20139;-76
2023/07/25 04:18:08;;;;;;;4.10;3.70;;;16.60;84.30;;;;;;5064645;28;20039;-75
2023/07/25 04:20:33;;;;;;;4.25;3.83;;;16.60;84.30;;;;;;5072582;28;20025;-76
2023/07/25 04:22:59;;;;;;;4.10;3.70;;;16.60;84.20;;;;;;5071975;28;20532;-75
2023/07/25 04:25:24;;;;;;;5.25;3.72;;;16.60;84.20;;;;;;5072457;28;20025;-76
2023/07/25 04:27:50;;;;;;;5.20;3.90;;;16.60;84.00;;;;;;5072231;28;20045;-75
2023/07/25 04:30:15;;;;;;;4.70;3.97;;;16.60;83.80;;;;;;5072357;28;20108;-77
2023/07/25 04:32:41;;;;;;;6.07;3.78;;;16.60;83.80;;;;;;5072455;28;20096;-75
2023/07/25 04:35:07;;;;;;;6.93;3.88;;;16.60;83.80;;;;;;5072467;28;20058;-75
2023/07/25 04:37:32;;;;;;;4.32;3.60;;;16.60;83.80;;;;;;5072388;28;20021;-76
2023/07/25 04:39:58;;;;;;;4.53;3.55;;;16.60;83.90;;;;;;5054481;28;20921;-76
2023/07/25 04:42:23;;;;;;;3.78;3.40;;;16.60;83.60;;;;;;5072329;28;20108;-76
2023/07/25 04:44:49;;;;;;;4.13;3.45;;;16.70;83.60;;;;;;5072352;28;20056;-76
2023/07/25 04:47:14;;;;;;;8.07;3.95;;;16.70;83.50;;;;;;5072113;28;20024;-77
2023/07/25 04:49:40;;;;;;;4.00;3.58;;;16.80;83.30;;;;;;5072236;28;20461;-76
2023/07/25 04:52:06;;;;;;;4.13;3.47;;;16.90;83.20;;;;;;5072249;28;20021;-76
2023/07/25 04:54:31;;;;;;;5.28;4.13;;;16.90;83.00;;;;;;5072075;28;20056;-76
2023/07/25 04:56:57;;;;;;;6.63;4.57;;;16.80;82.80;;;;;;5071977;28;20028;-77
2023/07/25 04:59:22;;;;;;;6.03;4.32;;;16.90;82.90;;;;;;5074253;28;20036;-77
2023/07/25 05:01:48;;;;;;;6.50;4.25;;;16.80;82.70;;;;;;5057657;28;20020;-77
2023/07/25 05:04:13;;;;;;;8.48;4.28;;;16.80;82.70;;;;;;5075633;28;20060;-76
2023/07/25 05:06:39;;;;;;;6.75;4.53;;;16.80;82.40;;;;;;5076838;28;20028;-76
2023/07/25 05:09:04;;;;;;;8.68;3.80;;;16.80;82.20;;;;;;5075880;28;20024;-76
2023/07/25 05:11:30;;;;;;;4.20;3.55;;;16.70;82.20;;;;;;5079020;28;20076;-75
2023/07/25 05:13:55;;;;;;;5.07;3.72;;;16.80;82.30;;;;;;5078654;28;20037;-76
2023/07/25 05:16:22;;;;;;;6.05;3.75;;;16.80;82.40;;;;;;5075622;28;20383;-77
2023/07/25 05:18:48;;;;;;;6.93;3.83;;;16.80;82.40;;;;;;5075224;28;20025;-77
2023/07/25 05:21:13;;;;;;;7.15;4.32;;;16.90;82.50;;;;;;5074958;28;20401;-79
2023/07/25 05:23:39;;;;;;;6.22;4.20;;;17.00;82.30;;;;;;5075168;28;20036;-78
2023/07/25 05:26:04;;;;;;;5.63;3.92;;;16.90;82.60;;;;;;5074930;28;20025;-77
2023/07/25 05:28:30;;;;;;;7.22;3.92;;;17.00;82.50;;;;;;5074738;28;20461;-78
2023/07/25 05:30:55;;;;;;;7.05;4.45;;;17.00;82.40;;;;;;5074394;28;20065;-78
2023/07/25 05:33:21;;;;;;;5.53;4.22;;;16.90;83.70;;;;;;5074545;28;20037;-77
2023/07/25 05:35:46;;;;;;;6.10;4.30;;;17.00;82.80;;;;;;5074448;28;20508;-78
2023/07/25 05:38:12;;;;;;;4.68;3.78;;;17.00;82.60;;;;;;5074560;28;20025;-77
2023/07/25 05:40:38;;;;;;;5.55;4.38;;;17.10;82.40;;;;;;5074694;28;20082;-77
2023/07/25 05:43:03;;;;;;;4.72;3.70;;;17.10;82.20;;;;;;5074782;28;20025;-77
2023/07/25 05:45:29;;;;;;;4.60;3.50;;;17.20;82.10;;;;;;5074746;28;20104;-77
2023/07/25 05:47:54;;;;;;;8.60;4.60;;;17.30;82.20;;;;;;5074720;28;20443;-77
2023/07/25 05:50:20;;;;;;;8.25;4.70;;;17.20;82.60;;;;;;5074695;28;20029;-77
2023/07/25 05:52:45;;;;;;;5.05;3.70;;;17.20;82.50;;;;;;5079976;28;20024;-76
2023/07/25 05:55:11;;;;;;;4.80;4.07;;;17.30;83.00;;;;;;5074650;28;20028;-77
2023/07/25 05:57:36;;;;;;;4.75;3.53;;;17.30;82.80;;;;;;5074788;28;20024;-77
2023/07/25 06:00:03;;;;;;;4.60;3.70;;;17.50;82.70;;;;;;5074497;28;20354;-77
2023/07/25 06:02:28;;;;;;;5.13;3.80;;;17.50;82.30;;;;;;5074281;28;20488;-76
2023/07/25 06:04:54;;;;;;;5.50;4.20;;;17.70;82.30;;;;;;5074253;28;20029;-75
2023/07/25 06:07:19;;;;;;;5.45;3.80;;;17.70;82.00;;;;;;5074025;28;20025;-76
2023/07/25 06:09:45;;;;;;;5.72;3.95;;;17.80;81.60;;;;;;5073640;28;20020;-76
2023/07/25 06:12:11;;;;;;;7.60;4.05;;;17.90;81.00;;;;;;5074127;28;20111;-76
2023/07/25 06:14:36;;;;;;;6.47;4.50;;;17.90;80.80;;;;;;5056120;28;20036;-78
2023/07/25 06:17:03;;;;;;;5.22;4.05;;;18.00;80.50;;;;;;5074077;28;20180;-77
2023/07/25 06:19:29;;;;;;;6.70;4.20;;;18.00;80.10;;;;;;5073839;28;20059;-77
2023/07/25 06:21:55;;;;;;;4.70;3.65;;;18.10;79.70;;;;;;5073725;28;20025;-77
2023/07/25 06:24:20;;;;;;;4.57;3.78;;;18.20;79.20;;;;;;5073953;28;20033;-78
2023/07/25 06:26:46;;;;;;;5.97;3.95;;;18.20;79.00;;;;;;5073849;28;20360;-77
2023/07/25 06:29:11;;;;;;;4.72;3.60;;;18.30;78.80;;;;;;5073895;28;20094;-79
2023/07/25 06:31:37;;;;;;;4.50;3.58;;;18.30;78.70;;;;;;5073875;28;20027;-79
2023/07/25 06:34:03;;;;;;;6.65;4.03;;;18.40;78.00;;;;;;5073740;28;20380;-78
2023/07/25 06:36:29;;;;;;;6.25;4.15;;;18.40;77.80;;;;;;5074820;28;20059;-78
2023/07/25 06:38:54;;;;;;;5.78;3.67;;;18.50;77.60;;;;;;5079306;28;20028;-79
2023/07/25 06:41:20;;;;;;;9.63;4.25;;;18.50;77.60;;;;;;5073493;28;20028;-77
2023/07/25 06:43:45;;;;;;;6.63;4.07;;;18.30;78.50;;;;;;5073495;28;20040;-77
2023/07/25 06:46:11;;;;;;;6.95;4.80;;;18.30;79.10;;;;;;5073316;28;20020;-78
2023/07/25 06:48:36;;;;;;;7.25;5.00;;;18.30;79.30;;;;;;5055565;28;20080;-78
2023/07/25 06:51:02;;;;;;;10.85;4.75;;;18.30;79.20;;;;;;5073477;28;20032;-77
2023/07/25 06:53:28;;;;;;;7.10;4.40;;;18.30;79.30;;;;;;5073224;28;20077;-77
2023/07/25 06:55:53;;;;;;;7.82;4.65;;;18.40;78.80;;;;;;5072900;28;20423;-79
2023/07/25 06:58:19;;;;;;;5.82;4.00;;;18.60;77.90;;;;;;5073459;28;20399;-78
2023/07/25 07:00:45;;;;;;;6.72;4.07;;;18.70;77.40;;;;;;5073062;28;20020;-77
2023/07/25 07:03:11;;;;;;;8.02;3.92;;;18.80;76.30;;;;;;5073081;28;20388;-77
2023/07/25 07:05:37;;;;;;;7.53;4.35;;;18.80;75.10;;;;;;5055272;28;20107;-79
2023/07/25 07:08:02;;;;;;;24.38;5.57;;;18.60;75.90;;;;;;5073211;28;20513;-85
2023/07/25 07:10:28;;;;;;;8.68;3.47;;;18.70;77.70;;;;;;5073407;28;20020;-83
2023/07/25 07:12:54;;;;;;;8.20;3.55;;;18.60;75.70;;;;;;5073441;28;20465;-83
2023/07/25 07:15:24;;;;;;;8.88;3.88;;;18.60;75.60;;;;;;5073281;28;20032;-81
2023/07/25 07:17:51;;;;;;;8.75;3.80;;;18.60;75.70;;;;;;5073295;28;20020;-78
2023/07/25 07:20:17;;;;;;;8.38;3.72;;;18.80;74.50;;;;;;5072866;28;20063;-78
2023/07/25 07:22:42;;;;;;;8.57;3.65;;;18.90;74.10;;;;;;5072451;28;20067;-80
2023/07/25 07:25:08;;;;;;;4.88;3.28;;;18.90;73.80;;;;;;5073619;28;20028;-87
2023/07/25 07:27:34;;;;;;;6.15;3.45;;;19.10;73.00;;;;;;5073204;28;20045;-79
2023/07/25 07:29:59;;;;;;;3.72;2.50;;;19.20;71.80;;;;;;5073685;28;20099;-80
2023/07/25 07:32:25;;;;;;;6.60;2.22;;;19.30;69.20;;;;;;5072897;28;20352;-79
2023/07/25 07:34:51;;;;;;;5.13;2.80;;;19.40;69.20;;;;;;5073239;28;20067;-81
2023/07/25 07:37:16;;;;;;;6.45;2.22;;;19.30;68.30;;;;;;5073122;28;20024;-81
2023/07/25 07:39:42;;;;;;;4.43;2.35;;;19.20;69.10;;;;;;5073443;28;20020;-79
2023/07/25 07:42:07;;;;;;;5.63;2.50;;;19.30;67.80;;;;;;5073494;28;20021;-81
2023/07/25 07:44:33;;;;;;;11.73;2.25;;;19.00;68.90;;;;;;5072936;28;20123;-79
2023/07/25 07:46:58;;;;;;;5.90;2.45;;;18.50;71.30;;;;;;5055319;28;20044;-83
2023/07/25 07:49:24;;;;;;;6.68;1.90;;;18.50;71.30;;;;;;5073987;28;20465;-79
2023/07/25 07:51:49;;;;;;;2.92;1.88;;;18.70;70.10;;;;;;5073156;28;20025;-80
2023/07/25 07:54:15;;;;;;;4.97;1.70;;;19.10;69.10;;;;;;5072917;28;20076;-80
2023/07/25 07:56:41;;;;;;;5.43;2.15;;;19.50;67.00;;;;;;5055417;28;20025;-79
2023/07/25 07:59:07;;;;;;;3.58;1.80;;;19.70;66.50;;;;;;5073670;28;20031;-80
2023/07/25 08:01:33;;;;;;;3.25;1.98;;;19.80;66.20;;;;;;5077400;28;20052;-78
2023/07/25 08:03:59;;;;;;;6.82;2.05;;;20.10;65.20;;;;;;5073074;28;20656;-80
2023/07/25 08:06:24;;;;;;;7.05;1.85;;;20.30;65.00;;;;;;5072693;28;20358;-80
2023/07/25 08:08:50;;;;;;;5.97;1.95;;;20.50;63.50;;;;;;5072619;28;20122;-80
2023/07/25 08:11:15;;;;;;;4.32;1.75;;;20.50;63.80;;;;;;5072805;28;20069;-81
2023/07/25 08:13:41;;;;;;;3.38;1.88;;;20.50;63.50;;;;;;5054521;28;20094;-80
2023/07/25 08:16:06;;;;;;;2.28;1.75;;;20.40;63.40;;;;;;5072785;28;20086;-80
2023/07/25 08:18:32;;;;;;;3.38;1.98;;;20.20;64.20;;;;;;5054662;28;20111;-80
2023/07/25 08:20:59;;;;;;;4.60;1.52;;;20.30;65.00;;;;;;5072824;28;20384;-80
2023/07/25 08:23:25;;;;;;;7.18;1.88;;;20.50;64.70;;;;;;5072697;28;20024;-81
2023/07/25 08:25:51;;;;;;;2.80;1.20;;;20.60;64.00;;;;;;5072377;28;20021;-80
2023/07/25 08:28:17;;;;;;;4.40;1.35;;;20.50;63.40;;;;;;5072264;28;20136;-80
2023/07/25 08:30:43;;;;;;;2.92;1.20;;;20.30;63.90;;;;;;5072279;28;20403;-80
2023/07/25 08:33:09;;;;;;;4.60;1.60;;;20.40;62.20;;;;;;5074320;28;20646;-80
2023/07/25 08:35:34;;;;;;;4.53;1.40;;;20.30;62.60;;;;;;5076413;28;20059;-80
2023/07/25 08:38:00;;;;;;;2.63;1.40;;;20.40;62.90;;;;;;5075906;28;20032;-80
2023/07/25 08:40:25;;;;;;;3.92;1.48;;;20.00;63.60;;;;;;5076067;28;20472;-80
2023/07/25 08:42:55;;;;;;;5.45;1.10;;;19.70;63.70;;;;;;5076155;28;20059;-80
2023/07/25 08:45:23;;;;;;;3.58;1.27;;;19.60;63.80;;;;;;5069836;28;20086;-80
2023/07/25 08:47:51;;;;;;;4.90;1.38;;;19.60;64.30;;;;;;5065148;28;20021;-80
2023/07/25 08:50:17;;;;;;;2.28;1.30;;;19.70;63.50;;;;;;5048659;28;20046;-80
2023/07/25 08:52:51;;;;;;;3.10;1.40;;;19.80;63.90;;;;;;5065626;28;20025;-80
2023/07/25 08:55:17;;;;;;;2.03;1.13;;;20.00;62.70;;;;;;5064640;28;20136;-80
2023/07/25 08:57:43;;;;;;;2.13;1.20;;;19.90;62.80;;;;;;5060860;28;20025;-80
2023/07/25 09:00:11;;;;;;;2.40;1.20;;;20.00;62.90;;;;;;5055884;28;20025;-81
2023/07/25 09:02:37;;;;;;;3.72;1.48;;;20.20;62.30;;;;;;5055981;28;20056;-80
2023/07/25 09:05:04;;;;;;;3.85;1.00;;;20.30;61.90;;;;;;5055993;28;20423;-80
2023/07/25 09:07:29;;;;;;;1.40;0.93;;;20.50;62.50;;;;;;5056061;28;20111;-81
2023/07/25 09:09:55;;;;;;;3.13;1.30;;;20.60;61.30;;;;;;5055771;28;20062;-81
2023/07/25 09:12:20;;;;;;;3.08;1.20;;;20.60;59.80;;;;;;5055907;28;20480;-80
2023/07/25 09:14:46;;;;;;;1.60;1.10;;;20.20;60.20;;;;;;5055289;28;20120;-80
2023/07/25 09:17:12;;;;;;;2.70;1.40;;;19.90;61.60;;;;;;5055615;28;20461;-80
2023/07/25 09:19:38;;;;;;;2.80;1.40;;;19.70;62.30;;;;;;5055571;28;20075;-80
2023/07/25 09:22:04;;;;;;;1.95;1.30;;;19.70;62.20;;;;;;5058049;28;20078;-81
2023/07/25 09:24:37;;;;;;;2.92;1.50;;;19.90;62.10;;;;;;5055241;28;20033;-81
2023/07/25 09:27:03;;;;;;;2.70;1.75;;;20.10;58.90;;;;;;5055500;28;20028;-81
2023/07/25 09:29:30;;;;;;;4.05;2.00;;;19.90;56.50;;;;;;5054872;28;20097;-80
2023/07/25 09:31:56;;;;;;;5.90;2.40;;;20.10;52.80;;;;;;5055019;28;20100;-80
2023/07/25 09:34:25;;;;;;;3.13;2.13;;;20.00;48.70;;;;;;5055139;28;20608;-77
2023/07/25 09:36:51;;;;;;;3.78;2.10;;;20.00;48.50;;;;;;5054635;28;20049;-77
2023/07/25 09:39:17;;;;;;;3.80;2.20;;;20.00;49.30;;;;;;5057267;28;20505;-75
2023/07/25 09:41:45;;;;;;;3.45;1.92;;;19.90;50.10;;;;;;5057364;28;20036;-76
2023/07/25 09:44:11;;;;;;;4.55;2.00;;;19.80;50.50;;;;;;5063844;28;20151;-75
2023/07/25 09:46:37;;;;;;;6.20;2.03;;;20.00;50.20;;;;;;5064578;28;20021;-76
2023/07/25 09:49:02;;;;;;;9.27;2.47;;;20.10;51.40;;;;;;5063060;28;20480;-75
2023/07/25 09:51:28;;;;;;;5.25;2.25;;;20.30;50.30;;;;;;5066225;28;20024;-75
2023/07/25 09:53:54;;;;;;;4.30;2.10;;;20.60;49.80;;;;;;5066776;28;20048;-76
2023/07/25 09:56:24;;;;;;;4.30;2.10;;;20.90;49.40;;;;;;5063291;28;20097;-76
2023/07/25 09:58:51;;;;;;;6.93;2.10;;;20.90;48.80;;;;;;5063450;28;20105;-77
2023/07/25 10:01:17;;;;;;;5.15;2.20;;;20.70;49.00;;;;;;5063397;28;20034;-78
2023/07/25 10:03:43;;;;;;;4.15;1.80;;;20.40;50.10;;;;;;5056768;28;20033;-87
2023/07/25 10:06:18;;;;;;;4.75;1.90;;;20.00;51.30;;;;;;5057528;28;20025;-89
2023/07/25 10:08:45;;;;;;;4.05;1.83;;;19.60;52.60;;;;;;5057912;28;20029;-87
2023/07/25 10:11:12;;;;;;;8.65;2.45;;;19.40;54.10;;;;;;5038908;28;20032;-86
2023/07/25 10:13:40;;;;;;;4.65;2.20;;;19.10;60.90;;;;;;5038081;28;20095;-85
2023/07/25 10:16:08;;;;;;;8.15;2.67;;;19.00;60.50;;;;;;5056452;28;20476;-87
2023/07/25 10:18:34;;;;;;;4.93;2.00;;;19.00;62.70;;;;;;5038932;28;20393;-87
2023/07/25 10:21:00;;;;;;;4.40;1.75;;;19.30;61.50;;;;;;5056427;28;20453;-85
2023/07/25 10:23:30;;;;;;;4.43;1.83;;;19.70;58.10;;;;;;5055923;28;20067;-87
2023/07/25 10:25:56;;;;;;;5.07;1.75;;;20.10;56.20;;;;;;5055888;28;20040;-89
2023/07/25 10:28:25;;;;;;;2.97;1.30;;;20.30;57.10;;;;;;5056452;28;20404;-87
2023/07/25 10:30:52;;;;;;;4.03;1.50;;;20.20;55.30;;;;;;5055835;28;20079;-89
2023/07/25 10:33:18;;;;;;;4.70;1.83;;;20.20;54.70;;;;;;5056422;28;20025;-89
2023/07/25 10:35:53;;;;;;;6.20;1.52;;;20.50;55.30;;;;;;5057291;28;20029;-89
2023/07/25 10:38:42;;;;;;;2.97;1.10;;;20.80;54.10;;;;;;5039319;28;20021;-87
2023/07/25 10:41:08;;;;;;;3.15;1.27;;;20.90;52.80;;;;;;5056612;28;20527;-79
2023/07/25 10:43:49;;;;;;;3.47;1.00;;;20.80;52.20;;;;;;5063315;28;20029;-83
2023/07/25 10:46:23;;;;;;;4.18;1.65;;;20.80;54.00;;;;;;5059694;28;20021;-81
2023/07/25 10:48:50;;;;;;;1.40;0.88;;;20.80;53.50;;;;;;5052572;28;20465;-87
2023/07/25 10:51:17;;;;;;;4.10;1.17;;;20.90;52.80;;;;;;5056713;28;20025;-84
2023/07/25 10:54:12;;;;;;;2.83;1.25;;;20.80;52.20;;;;;;5064384;28;20029;-88
2023/07/25 10:56:38;;;;;;;1.95;0.70;;;20.70;50.60;;;;;;5042034;28;20551;-82
2023/07/25 10:59:14;;;;;;;0.98;0.82;;;20.70;50.30;;;;;;5053630;28;20078;-82
2023/07/25 11:01:43;;;;;;;;;;;20.40;51.70;;;;;;5054061;28;20032;-83
2023/07/25 11:04:26;;;;;;;1.52;0.82;;;20.50;51.50;;;;;;5056564;28;19913;-84
2023/07/25 11:06:53;;;;;;;3.50;0.93;;;20.40;49.70;;;;;;5073159;28;20035;-83
2023/07/25 11:09:21;;;;;;;1.80;1.15;;;20.50;51.00;;;;;;5055231;28;20020;-82
2023/07/25 11:11:48;;;;;;;1.58;0.75;;;20.60;52.00;;;;;;5039065;28;20432;-81
2023/07/25 11:14:17;;;;;;;2.50;0.90;;;20.80;50.00;;;;;;5073450;28;20085;-81
2023/07/25 11:16:44;;;;;;;0.85;0.82;;;20.90;50.30;;;;;;5073567;28;20048;-88
2023/07/25 11:19:10;;;;;;;1.45;0.98;;;21.00;49.20;;;;;;5047381;28;20193;-80
2023/07/25 11:21:38;;;;;;;3.30;1.08;;;21.00;49.60;;;;;;5064753;28;20017;-80
2023/07/25 11:24:04;;;;;;;1.88;0.80;;;21.00;50.00;;;;;;5046019;28;20386;-82
2023/07/25 11:26:31;;;;;;;7.28;1.05;;;20.90;48.60;;;;;;5063578;28;20129;-83
2023/07/25 11:29:02;;;;;;;1.98;1.00;;;20.70;50.00;;;;;;5061454;28;20081;-81
2023/07/25 11:31:28;;;;;;;3.28;1.20;;;20.50;54.80;;;;;;5062954;28;20020;-82
2023/07/25 11:33:54;;;;;;;2.28;1.27;;;20.50;56.20;;;;;;5042971;28;20052;-83
2023/07/25 11:36:21;;;;;;;4.03;1.30;;;20.70;57.00;;;;;;5058104;28;20025;-81
2023/07/25 11:38:46;;;;;;;1.15;0.68;;;21.00;53.20;;;;;;5035051;28;20025;-80
2023/07/25 11:41:12;;;;;;;3.03;0.95;;;21.10;53.90;;;;;;5058605;28;20028;-84
2023/07/25 11:43:38;;;;;;;1.67;0.80;;;21.40;53.00;;;;;;5063747;28;20021;-84
2023/07/25 11:46:04;;;;;;;2.83;1.10;;;21.70;50.60;;;;;;5062283;28;20017;-82
2023/07/25 11:48:30;;;;;;;3.95;1.13;;;22.00;51.20;;;;;;5044571;28;20025;-83
2023/07/25 11:50:57;;;;;;;3.80;0.70;;;22.20;50.40;;;;;;5064218;28;20507;-84
2023/07/25 11:53:26;;;;;;;1.80;0.85;;;21.70;50.50;;;;;;5046453;28;20033;-83
2023/07/25 11:55:52;;;;;;;4.80;1.15;;;21.60;51.40;;;;;;5061949;28;20017;-82
2023/07/25 11:58:22;;;;;;;2.20;1.00;;;22.00;51.10;;;;;;5045911;28;20117;-81
2023/07/25 12:00:52;;;;;;;1.35;0.90;;;22.20;50.60;;;;;;5041968;28;20013;-84
2023/07/25 12:03:22;;;;;;;3.53;1.42;;;21.90;49.90;;;;;;5053261;28;20021;-82
2023/07/25 12:05:56;;;;;;;4.65;1.05;;;21.90;50.70;;;;;;5038068;28;20394;-80
2023/07/25 12:08:42;;;;;;;2.15;0.82;;;21.70;49.00;;;;;;5037382;28;20036;-80
2023/07/25 12:11:13;;;;;;;2.47;1.30;;;21.70;47.00;;;;;;5056732;28;20109;-79
2023/07/25 12:13:53;;;;;;;1.25;0.93;;;21.80;46.20;;;;;;5056722;28;20036;-80
2023/07/25 12:16:32;;;;;;;3.70;1.08;;;22.30;44.50;;;;;;5039028;28;20380;-82
2023/07/25 12:19:14;;;;;;;2.17;0.98;;;22.20;45.80;;;;;;5057350;28;20469;-84
2023/07/25 12:21:43;;;;;;;1.85;1.10;;;21.80;46.10;;;;;;5056634;28;20036;-82
2023/07/25 12:24:11;;;;;;;1.55;1.00;;;21.80;44.80;;;;;;5057184;28;20495;-79
2023/07/25 12:26:47;;;;;;;2.72;1.30;;;21.90;45.60;;;;;;5064212;28;20087;-88
2023/07/25 12:29:18;;;;;;;2.22;1.13;;;21.80;46.30;;;;;;5053066;28;20041;-88
2023/07/25 12:31:44;;;;;;;4.07;1.00;;;22.00;46.00;;;;;;5049248;28;20025;-88
2023/07/25 12:34:10;;;;;;;3.28;1.23;;;22.00;45.80;;;;;;5067801;28;20066;-88
2023/07/25 12:36:36;;;;;;;3.15;0.80;;;22.00;43.40;;;;;;5049323;28;20024;-86
2023/07/25 12:39:02;;;;;;;1.90;0.85;;;21.80;42.40;;;;;;5066293;28;20027;-84
2023/07/25 12:41:28;;;;;;;5.35;1.00;;;21.70;43.70;;;;;;5049233;28;20423;-85
2023/07/25 12:43:54;;;;;;;2.47;1.48;;;21.80;44.70;;;;;;5049178;28;20104;-88